sensor_id;sensor_type;location;lat;lon;timestamp;pressure;altitude;pressure_sealevel;temperature;humidity
73332;BME280;61560;33.718;73.040;2022-10-17T00:00:48;94986.03;;;20.20;62.78
73332;BME280;61560;33.718;73.040;2022-10-17T00:03:16;94989.44;;;20.15;63.16
73332;BME280;61560;33.718;73.040;2022-10-17T00:05:44;94996.72;;;20.13;63.40
73332;BME280;61560;33.718;73.040;2022-10-17T00:08:13;94995.47;;;20.14;63.37
73332;BME280;61560;33.718;73.040;2022-10-17T00:10:40;94993.16;;;20.12;63.35
73332;BME280;61560;33.718;73.040;2022-10-17T00:13:07;94985.78;;;20.09;63.99
73332;BME280;61560;33.718;73.040;2022-10-17T00:15:34;94984.69;;;20.07;63.80
73332;BME280;61560;33.718;73.040;2022-10-17T00:18:01;94990.19;;;20.16;63.80
73332;BME280;61560;33.718;73.040;2022-10-17T00:20:28;94993.59;;;20.20;63.61
73332;BME280;61560;33.718;73.040;2022-10-17T00:22:55;94995.16;;;20.21;63.48
73332;BME280;61560;33.718;73.040;2022-10-17T00:25:22;94992.19;;;20.24;63.20
73332;BME280;61560;33.718;73.040;2022-10-17T00:27:49;95000.84;;;20.26;62.98
73332;BME280;61560;33.718;73.040;2022-10-17T00:30:15;94992.38;;;20.21;63.23
73332;BME280;61560;33.718;73.040;2022-10-17T00:32:42;94994.53;;;20.17;63.20
73332;BME280;61560;33.718;73.040;2022-10-17T00:35:09;94999.97;;;20.11;63.35
73332;BME280;61560;33.718;73.040;2022-10-17T00:37:37;94998.41;;;20.10;63.51
73332;BME280;61560;33.718;73.040;2022-10-17T00:40:05;94993.97;;;20.04;63.57
73332;BME280;61560;33.718;73.040;2022-10-17T00:42:33;95003.25;;;20.01;63.14
73332;BME280;61560;33.718;73.040;2022-10-17T00:45:05;95006.19;;;19.97;63.32
73332;BME280;61560;33.718;73.040;2022-10-17T00:47:32;95009.44;;;19.96;63.19
73332;BME280;61560;33.718;73.040;2022-10-17T00:50:02;95006.53;;;19.90;63.17
73332;BME280;61560;33.718;73.040;2022-10-17T00:52:29;95014.41;;;19.92;63.39
73332;BME280;61560;33.718;73.040;2022-10-17T00:55:19;95007.44;;;19.96;63.17
73332;BME280;61560;33.718;73.040;2022-10-17T00:57:48;95014.53;;;19.97;63.56
73332;BME280;61560;33.718;73.040;2022-10-17T02:01:36;95047.41;;;20.08;62.90
73332;BME280;61560;33.718;73.040;2022-10-17T02:04:06;95042.44;;;20.21;62.57
73332;BME280;61560;33.718;73.040;2022-10-17T02:06:37;95036.97;;;20.35;62.12
73332;BME280;61560;33.718;73.040;2022-10-17T02:09:23;95047.31;;;20.44;61.36
73332;BME280;61560;33.718;73.040;2022-10-17T02:14:48;95046.03;;;20.78;61.12
73332;BME280;61560;33.718;73.040;2022-10-17T02:25:52;95061.13;;;21.33;61.82
73332;BME280;61560;33.718;73.040;2022-10-17T02:28:28;95060.03;;;21.54;60.94
73332;BME280;61560;33.718;73.040;2022-10-17T02:33:27;95053.06;;;21.88;59.53
73332;BME280;61560;33.718;73.040;2022-10-17T02:36:00;95061.56;;;22.08;59.19
73332;BME280;61560;33.718;73.040;2022-10-17T02:38:29;95061.06;;;22.24;59.47
73332;BME280;61560;33.718;73.040;2022-10-17T02:40:56;95067.22;;;22.43;58.91
73332;BME280;61560;33.718;73.040;2022-10-17T02:43:24;95060.13;;;22.76;57.45
73332;BME280;61560;33.718;73.040;2022-10-17T02:45:51;95060.25;;;23.42;55.76
73332;BME280;61560;33.718;73.040;2022-10-17T02:48:27;95058.91;;;24.04;53.83
73332;BME280;61560;33.718;73.040;2022-10-17T02:56:33;95067.63;;;24.68;50.33
73332;BME280;61560;33.718;73.040;2022-10-17T02:59:05;95070.84;;;24.92;49.63
73332;BME280;61560;33.718;73.040;2022-10-17T03:01:35;95068.25;;;25.26;48.58
73332;BME280;61560;33.718;73.040;2022-10-17T03:04:09;95068.44;;;25.70;46.59
73332;BME280;61560;33.718;73.040;2022-10-17T03:06:36;95066.84;;;26.39;45.49
73332;BME280;61560;33.718;73.040;2022-10-17T03:09:03;95066.25;;;27.29;43.62
73332;BME280;61560;33.718;73.040;2022-10-17T03:11:30;95067.03;;;27.92;41.95
73332;BME280;61560;33.718;73.040;2022-10-17T03:13:56;95076.22;;;28.74;40.67
73332;BME280;61560;33.718;73.040;2022-10-17T03:16:23;95076.69;;;29.80;38.98
73332;BME280;61560;33.718;73.040;2022-10-17T03:18:50;95063.91;;;30.67;37.06
73332;BME280;61560;33.718;73.040;2022-10-17T03:21:17;95072.78;;;31.34;35.21
73332;BME280;61560;33.718;73.040;2022-10-17T03:23:43;95069.41;;;31.88;33.69
73332;BME280;61560;33.718;73.040;2022-10-17T03:26:12;95080.47;;;32.39;33.29
73332;BME280;61560;33.718;73.040;2022-10-17T03:28:38;95072.22;;;32.82;32.46
73332;BME280;61560;33.718;73.040;2022-10-17T03:31:12;95071.16;;;32.92;31.68
73332;BME280;61560;33.718;73.040;2022-10-17T03:33:39;95072.91;;;32.95;30.89
73332;BME280;61560;33.718;73.040;2022-10-17T03:36:11;95075.75;;;32.95;30.87
73332;BME280;61560;33.718;73.040;2022-10-17T03:38:39;95075.50;;;32.86;30.79
73332;BME280;61560;33.718;73.040;2022-10-17T03:41:06;95077.69;;;32.80;31.48
73332;BME280;61560;33.718;73.040;2022-10-17T03:43:39;95080.88;;;33.18;31.39
73332;BME280;61560;33.718;73.040;2022-10-17T03:46:07;95091.78;;;33.55;29.83
73332;BME280;61560;33.718;73.040;2022-10-17T03:48:34;95090.56;;;33.99;29.51
73332;BME280;61560;33.718;73.040;2022-10-17T03:51:08;95089.84;;;34.49;29.33
73332;BME280;61560;33.718;73.040;2022-10-17T03:53:42;95082.41;;;35.20;28.41
73332;BME280;61560;33.718;73.040;2022-10-17T03:56:19;95091.28;;;35.92;27.90
73332;BME280;61560;33.718;73.040;2022-10-17T03:58:54;95089.06;;;36.45;27.23
73332;BME280;61560;33.718;73.040;2022-10-17T04:01:21;95082.53;;;36.92;26.08
73332;BME280;61560;33.718;73.040;2022-10-17T04:03:54;95088.31;;;37.34;24.53
73332;BME280;61560;33.718;73.040;2022-10-17T04:06:22;95082.00;;;37.85;24.15
73332;BME280;61560;33.718;73.040;2022-10-17T04:08:51;95087.88;;;38.21;24.35
73332;BME280;61560;33.718;73.040;2022-10-17T04:11:23;95084.81;;;38.70;23.80
73332;BME280;61560;33.718;73.040;2022-10-17T04:13:53;95092.28;;;39.09;22.35
73332;BME280;61560;33.718;73.040;2022-10-17T04:16:24;95089.88;;;39.52;22.17
73332;BME280;61560;33.718;73.040;2022-10-17T04:19:00;95096.00;;;39.65;21.48
73332;BME280;61560;33.718;73.040;2022-10-17T04:21:33;95097.72;;;39.87;22.24
73332;BME280;61560;33.718;73.040;2022-10-17T04:24:05;95092.91;;;39.99;21.33
73332;BME280;61560;33.718;73.040;2022-10-17T04:26:42;95087.94;;;40.10;21.36
73332;BME280;61560;33.718;73.040;2022-10-17T04:29:10;95088.25;;;40.42;20.70
73332;BME280;61560;33.718;73.040;2022-10-17T04:31:38;95085.34;;;40.71;19.85
73332;BME280;61560;33.718;73.040;2022-10-17T04:34:14;95083.38;;;40.73;20.13
73332;BME280;61560;33.718;73.040;2022-10-17T04:36:49;95087.66;;;40.53;20.29
73332;BME280;61560;33.718;73.040;2022-10-17T04:39:17;95087.66;;;40.44;20.16
73332;BME280;61560;33.718;73.040;2022-10-17T04:41:45;95087.50;;;40.70;20.58
73332;BME280;61560;33.718;73.040;2022-10-17T04:44:12;95076.88;;;40.92;20.54
73332;BME280;61560;33.718;73.040;2022-10-17T04:46:44;95084.09;;;41.03;20.22
73332;BME280;61560;33.718;73.040;2022-10-17T04:49:14;95080.19;;;41.38;19.83
73332;BME280;61560;33.718;73.040;2022-10-17T04:51:43;95074.19;;;41.65;19.08
73332;BME280;61560;33.718;73.040;2022-10-17T04:54:32;95072.34;;;41.39;19.37
73332;BME280;61560;33.718;73.040;2022-10-17T04:57:06;95068.81;;;41.50;19.25
73332;BME280;61560;33.718;73.040;2022-10-17T04:59:32;95067.56;;;41.84;19.06
73332;BME280;61560;33.718;73.040;2022-10-17T05:02:37;95067.22;;;41.68;19.25
73332;BME280;61560;33.718;73.040;2022-10-17T05:05:06;95058.00;;;41.29;19.06
73332;BME280;61560;33.718;73.040;2022-10-17T05:07:33;95057.53;;;40.93;19.69
73332;BME280;61560;33.718;73.040;2022-10-17T05:10:09;95056.97;;;40.46;20.42
73332;BME280;61560;33.718;73.040;2022-10-17T05:12:39;95060.53;;;39.24;21.88
73332;BME280;61560;33.718;73.040;2022-10-17T05:15:06;95061.69;;;38.41;22.86
73332;BME280;61560;33.718;73.040;2022-10-17T05:17:33;95064.41;;;37.46;24.20
73332;BME280;61560;33.718;73.040;2022-10-17T05:20:00;95061.69;;;36.35;25.76
73332;BME280;61560;33.718;73.040;2022-10-17T05:22:29;95063.78;;;35.49;27.31
73332;BME280;61560;33.718;73.040;2022-10-17T05:24:56;95063.56;;;34.79;28.05
73332;BME280;61560;33.718;73.040;2022-10-17T05:27:23;95069.97;;;34.14;29.44
73332;BME280;61560;33.718;73.040;2022-10-17T05:29:50;95062.47;;;33.60;29.55
73332;BME280;61560;33.718;73.040;2022-10-17T05:32:30;95065.78;;;33.23;29.89
73332;BME280;61560;33.718;73.040;2022-10-17T05:34:57;95060.19;;;32.89;30.59
73332;BME280;61560;33.718;73.040;2022-10-17T05:37:25;95057.53;;;32.50;30.50
73332;BME280;61560;33.718;73.040;2022-10-17T05:39:54;95052.59;;;32.16;31.08
73332;BME280;61560;33.718;73.040;2022-10-17T05:42:21;95051.63;;;31.88;32.62
73332;BME280;61560;33.718;73.040;2022-10-17T05:44:48;95059.19;;;31.59;33.16
73332;BME280;61560;33.718;73.040;2022-10-17T05:47:17;95051.03;;;31.42;33.03
73332;BME280;61560;33.718;73.040;2022-10-17T05:49:44;95050.69;;;31.20;33.38
73332;BME280;61560;33.718;73.040;2022-10-17T05:52:11;95044.34;;;31.01;34.58
73332;BME280;61560;33.718;73.040;2022-10-17T05:54:52;95043.31;;;30.85;34.31
73332;BME280;61560;33.718;73.040;2022-10-17T05:57:19;95043.50;;;30.74;35.15
73332;BME280;61560;33.718;73.040;2022-10-17T05:59:46;95038.38;;;30.73;35.80
73332;BME280;61560;33.718;73.040;2022-10-17T06:02:17;95035.84;;;30.69;35.47
73332;BME280;61560;33.718;73.040;2022-10-17T06:04:47;95039.13;;;30.73;34.55
73332;BME280;61560;33.718;73.040;2022-10-17T06:07:16;95031.94;;;30.72;34.42
73332;BME280;61560;33.718;73.040;2022-10-17T06:09:43;95028.13;;;30.69;34.05
73332;BME280;61560;33.718;73.040;2022-10-17T06:12:10;95034.56;;;30.70;33.83
73332;BME280;61560;33.718;73.040;2022-10-17T06:14:37;95027.69;;;30.65;34.14
73332;BME280;61560;33.718;73.040;2022-10-17T06:17:05;95027.91;;;30.67;34.23
73332;BME280;61560;33.718;73.040;2022-10-17T06:19:33;95026.25;;;30.59;34.10
73332;BME280;61560;33.718;73.040;2022-10-17T06:22:01;95019.69;;;30.51;34.77
73332;BME280;61560;33.718;73.040;2022-10-17T06:24:29;95020.72;;;30.35;35.47
73332;BME280;61560;33.718;73.040;2022-10-17T06:26:56;95010.72;;;30.34;35.63
73332;BME280;61560;33.718;73.040;2022-10-17T06:29:25;95018.34;;;30.39;35.58
73332;BME280;61560;33.718;73.040;2022-10-17T06:31:51;95006.72;;;30.42;35.24
73332;BME280;61560;33.718;73.040;2022-10-17T06:34:19;95013.16;;;30.43;35.82
73332;BME280;61560;33.718;73.040;2022-10-17T06:36:46;95005.56;;;30.51;35.96
73332;BME280;61560;33.718;73.040;2022-10-17T06:39:14;95002.41;;;30.54;35.58
73332;BME280;61560;33.718;73.040;2022-10-17T06:42:01;95001.13;;;30.55;35.80
73332;BME280;61560;33.718;73.040;2022-10-17T06:44:58;94999.59;;;30.54;35.60
73332;BME280;61560;33.718;73.040;2022-10-17T06:47:41;94990.34;;;30.54;34.98
73332;BME280;61560;33.718;73.040;2022-10-17T06:50:27;94994.75;;;30.36;34.42
73332;BME280;61560;33.718;73.040;2022-10-17T06:53:26;94988.94;;;30.29;35.12
73332;BME280;61560;33.718;73.040;2022-10-17T06:56:24;94982.06;;;30.24;35.31
73332;BME280;61560;33.718;73.040;2022-10-17T06:59:11;94984.13;;;30.24;35.55
73332;BME280;61560;33.718;73.040;2022-10-17T07:01:46;94981.63;;;30.20;36.15
73332;BME280;61560;33.718;73.040;2022-10-17T07:04:14;94978.47;;;30.24;35.96
73332;BME280;61560;33.718;73.040;2022-10-17T07:06:41;94981.75;;;30.28;35.71
73332;BME280;61560;33.718;73.040;2022-10-17T07:09:16;94961.69;;;30.31;36.03
73332;BME280;61560;33.718;73.040;2022-10-17T07:11:44;94967.81;;;30.35;35.93
73332;BME280;61560;33.718;73.040;2022-10-17T07:14:11;94961.16;;;30.33;34.80
73332;BME280;61560;33.718;73.040;2022-10-17T07:16:37;94962.28;;;30.24;34.37
73332;BME280;61560;33.718;73.040;2022-10-17T07:19:11;94957.19;;;30.23;34.69
73332;BME280;61560;33.718;73.040;2022-10-17T07:21:39;94948.16;;;30.24;34.69
73332;BME280;61560;33.718;73.040;2022-10-17T07:24:07;94943.06;;;30.23;34.30
73332;BME280;61560;33.718;73.040;2022-10-17T07:26:34;94939.91;;;30.26;34.92
73332;BME280;61560;33.718;73.040;2022-10-17T07:29:00;94937.63;;;30.25;35.07
73332;BME280;61560;33.718;73.040;2022-10-17T07:31:43;94933.25;;;30.24;34.23
73332;BME280;61560;33.718;73.040;2022-10-17T07:34:14;94935.63;;;30.20;34.48
73332;BME280;61560;33.718;73.040;2022-10-17T07:36:40;94934.97;;;30.14;34.94
73332;BME280;61560;33.718;73.040;2022-10-17T07:39:08;94927.13;;;30.07;34.48
73332;BME280;61560;33.718;73.040;2022-10-17T07:41:36;94921.25;;;30.05;35.24
73332;BME280;61560;33.718;73.040;2022-10-17T07:44:04;94925.91;;;30.02;34.55
73332;BME280;61560;33.718;73.040;2022-10-17T07:46:35;94919.06;;;29.98;34.54
73332;BME280;61560;33.718;73.040;2022-10-17T07:49:02;94912.50;;;29.89;34.60
73332;BME280;61560;33.718;73.040;2022-10-17T07:51:28;94909.06;;;29.97;34.73
73332;BME280;61560;33.718;73.040;2022-10-17T07:53:55;94910.25;;;30.01;34.90
73332;BME280;61560;33.718;73.040;2022-10-17T07:56:21;94908.75;;;30.00;35.12
73332;BME280;61560;33.718;73.040;2022-10-17T07:58:51;94897.22;;;29.98;34.05
73332;BME280;61560;33.718;73.040;2022-10-17T08:01:17;94894.06;;;30.02;34.39
73332;BME280;61560;33.718;73.040;2022-10-17T08:03:47;94900.94;;;30.06;34.34
73332;BME280;61560;33.718;73.040;2022-10-17T08:06:14;94884.22;;;30.08;32.59
73332;BME280;61560;33.718;73.040;2022-10-17T08:08:41;94889.75;;;30.01;32.02
73332;BME280;61560;33.718;73.040;2022-10-17T08:11:11;94881.88;;;29.93;31.57
73332;BME280;61560;33.718;73.040;2022-10-17T08:13:40;94875.88;;;29.84;31.37
73332;BME280;61560;33.718;73.040;2022-10-17T08:16:09;94871.69;;;29.90;31.88
73332;BME280;61560;33.718;73.040;2022-10-17T08:18:38;94868.97;;;29.98;32.36
73332;BME280;61560;33.718;73.040;2022-10-17T08:21:05;94861.94;;;30.05;32.02
73332;BME280;61560;33.718;73.040;2022-10-17T08:23:36;94857.91;;;30.13;32.28
73332;BME280;61560;33.718;73.040;2022-10-17T08:26:04;94852.94;;;30.19;32.24
73332;BME280;61560;33.718;73.040;2022-10-17T08:28:37;94852.28;;;30.26;32.41
73332;BME280;61560;33.718;73.040;2022-10-17T08:31:13;94843.50;;;30.30;30.93
73332;BME280;61560;33.718;73.040;2022-10-17T08:33:40;94840.00;;;30.24;30.32
73332;BME280;61560;33.718;73.040;2022-10-17T08:36:08;94838.50;;;30.23;29.63
73332;BME280;61560;33.718;73.040;2022-10-17T08:38:36;94827.81;;;30.16;29.71
73332;BME280;61560;33.718;73.040;2022-10-17T08:44:10;94824.34;;;30.10;31.18
73332;BME280;61560;33.718;73.040;2022-10-17T08:46:43;94819.19;;;29.95;31.99
73332;BME280;61560;33.718;73.040;2022-10-17T08:49:22;94822.56;;;29.93;31.83
73332;BME280;61560;33.718;73.040;2022-10-17T08:51:55;94818.47;;;29.95;32.16
73332;BME280;61560;33.718;73.040;2022-10-17T08:54:44;94798.91;;;29.97;33.66
73332;BME280;61560;33.718;73.040;2022-10-17T08:57:15;94802.69;;;29.99;32.92
73332;BME280;61560;33.718;73.040;2022-10-17T08:59:43;94792.38;;;30.02;33.23
73332;BME280;61560;33.718;73.040;2022-10-17T09:16:09;94775.72;;;29.85;30.07
73332;BME280;61560;33.718;73.040;2022-10-17T09:18:43;94772.47;;;29.81;30.56
73332;BME280;61560;33.718;73.040;2022-10-17T09:24:02;94769.03;;;29.69;29.65
73332;BME280;61560;33.718;73.040;2022-10-17T09:26:30;94762.63;;;29.69;30.05
73332;BME280;61560;33.718;73.040;2022-10-17T09:28:58;94756.44;;;29.70;30.56
73332;BME280;61560;33.718;73.040;2022-10-17T09:31:32;94765.47;;;29.69;30.80
73332;BME280;61560;33.718;73.040;2022-10-17T09:34:01;94758.09;;;29.66;29.15
73332;BME280;61560;33.718;73.040;2022-10-17T09:36:31;94762.75;;;29.63;29.00
73332;BME280;61560;33.718;73.040;2022-10-17T09:39:04;94756.66;;;29.59;29.08
73332;BME280;61560;33.718;73.040;2022-10-17T09:41:49;94753.69;;;29.52;28.98
73332;BME280;61560;33.718;73.040;2022-10-17T09:44:21;94751.06;;;29.54;29.27
73332;BME280;61560;33.718;73.040;2022-10-17T09:49:35;94748.78;;;29.39;28.73
73332;BME280;61560;33.718;73.040;2022-10-17T09:52:07;94747.69;;;29.42;28.99
73332;BME280;61560;33.718;73.040;2022-10-17T09:54:50;94736.16;;;29.40;29.17
73332;BME280;61560;33.718;73.040;2022-10-17T09:57:20;94745.25;;;29.33;29.45
73332;BME280;61560;33.718;73.040;2022-10-17T09:59:56;94741.16;;;29.34;29.76
73332;BME280;61560;33.718;73.040;2022-10-17T10:02:29;94735.94;;;29.38;30.29
73332;BME280;61560;33.718;73.040;2022-10-17T10:05:03;94727.47;;;29.38;29.94
73332;BME280;61560;33.718;73.040;2022-10-17T10:07:32;94732.34;;;29.38;29.87
73332;BME280;61560;33.718;73.040;2022-10-17T10:09:59;94730.63;;;29.35;30.17
73332;BME280;61560;33.718;73.040;2022-10-17T10:12:34;94727.25;;;29.36;30.55
73332;BME280;61560;33.718;73.040;2022-10-17T10:15:04;94734.19;;;29.35;30.51
73332;BME280;61560;33.718;73.040;2022-10-17T10:17:53;94731.16;;;29.33;31.21
73332;BME280;61560;33.718;73.040;2022-10-17T10:20:36;94727.34;;;29.31;30.73
73332;BME280;61560;33.718;73.040;2022-10-17T10:23:14;94730.03;;;29.23;30.41
73332;BME280;61560;33.718;73.040;2022-10-17T10:25:56;94730.56;;;29.22;29.83
73332;BME280;61560;33.718;73.040;2022-10-17T10:28:27;94720.06;;;29.22;30.40
73332;BME280;61560;33.718;73.040;2022-10-17T10:30:59;94724.38;;;29.23;30.99
73332;BME280;61560;33.718;73.040;2022-10-17T10:33:29;94721.34;;;29.21;31.57
73332;BME280;61560;33.718;73.040;2022-10-17T10:36:03;94716.56;;;29.16;31.66
73332;BME280;61560;33.718;73.040;2022-10-17T10:38:32;94715.78;;;29.16;31.80
73332;BME280;61560;33.718;73.040;2022-10-17T10:41:06;94712.50;;;29.11;32.07
73332;BME280;61560;33.718;73.040;2022-10-17T10:48:59;94717.69;;;29.07;33.21
73332;BME280;61560;33.718;73.040;2022-10-17T10:51:41;94715.94;;;29.04;33.99
73332;BME280;61560;33.718;73.040;2022-10-17T10:54:12;94716.78;;;28.99;34.94
73332;BME280;61560;33.718;73.040;2022-10-17T10:56:49;94716.13;;;28.93;34.75
73332;BME280;61560;33.718;73.040;2022-10-17T10:59:36;94721.84;;;28.88;34.29
73332;BME280;61560;33.718;73.040;2022-10-17T11:02:26;94722.69;;;28.83;33.76
73332;BME280;61560;33.718;73.040;2022-10-17T11:07:39;94718.63;;;28.78;33.23
73332;BME280;61560;33.718;73.040;2022-10-17T11:10:43;94717.63;;;28.76;32.92
73332;BME280;61560;33.718;73.040;2022-10-17T11:13:22;94711.88;;;28.68;33.50
73332;BME280;61560;33.718;73.040;2022-10-17T11:19:02;94714.09;;;28.57;36.26
73332;BME280;61560;33.718;73.040;2022-10-17T11:21:36;94719.00;;;28.51;38.12
73332;BME280;61560;33.718;73.040;2022-10-17T11:24:57;94715.03;;;28.41;40.78
73332;BME280;61560;33.718;73.040;2022-10-17T11:27:02;94724.38;;;28.30;41.37
73332;BME280;61560;33.718;73.040;2022-10-17T11:29:34;94723.22;;;28.20;42.09
73332;BME280;61560;33.718;73.040;2022-10-17T11:32:21;94709.19;;;28.14;43.10
73332;BME280;61560;33.718;73.040;2022-10-17T11:35:20;94709.03;;;28.07;43.60
73332;BME280;61560;33.718;73.040;2022-10-17T11:38:26;94715.56;;;27.96;43.72
73332;BME280;61560;33.718;73.040;2022-10-17T11:40:58;94714.66;;;27.83;43.95
73332;BME280;61560;33.718;73.040;2022-10-17T11:43:33;94711.94;;;27.72;43.92
73332;BME280;61560;33.718;73.040;2022-10-17T11:46:26;94714.13;;;27.60;44.54
73332;BME280;61560;33.718;73.040;2022-10-17T11:52:40;94718.38;;;27.42;45.39
73332;BME280;61560;33.718;73.040;2022-10-17T11:55:13;94716.69;;;27.28;45.54
73332;BME280;61560;33.718;73.040;2022-10-17T12:01:03;94728.59;;;27.10;46.57
73332;BME280;61560;33.718;73.040;2022-10-17T12:11:59;94732.47;;;26.61;47.91
73332;BME280;61560;33.718;73.040;2022-10-17T12:14:35;94729.94;;;26.52;47.47
73332;BME280;61560;33.718;73.040;2022-10-17T12:17:27;94737.69;;;26.40;47.09
73332;BME280;61560;33.718;73.040;2022-10-17T12:19:50;94746.41;;;26.31;47.16
73332;BME280;61560;33.718;73.040;2022-10-17T12:25:00;94746.72;;;26.17;46.58
73332;BME280;61560;33.718;73.040;2022-10-17T12:27:42;94744.19;;;26.08;47.00
73332;BME280;61560;33.718;73.040;2022-10-17T12:35:23;94738.38;;;25.83;47.16
73332;BME280;61560;33.718;73.040;2022-10-17T12:45:52;94743.78;;;25.54;45.51
73332;BME280;61560;33.718;73.040;2022-10-17T12:54:10;94743.81;;;25.43;44.36
73332;BME280;61560;33.718;73.040;2022-10-17T12:56:41;94741.22;;;25.39;43.81
73332;BME280;61560;33.718;73.040;2022-10-17T13:01:46;94751.16;;;25.29;43.36
73332;BME280;61560;33.718;73.040;2022-10-17T13:04:14;94753.44;;;25.25;43.31
73332;BME280;61560;33.718;73.040;2022-10-17T13:06:46;94757.78;;;25.20;43.10
73332;BME280;61560;33.718;73.040;2022-10-17T13:09:32;94756.00;;;25.17;42.82
73332;BME280;61560;33.718;73.040;2022-10-17T13:12:04;94751.16;;;25.12;42.82
73332;BME280;61560;33.718;73.040;2022-10-17T13:14:38;94755.00;;;25.09;42.84
73332;BME280;61560;33.718;73.040;2022-10-17T13:17:27;94756.00;;;25.06;42.80
73332;BME280;61560;33.718;73.040;2022-10-17T13:19:54;94755.22;;;25.00;42.65
73332;BME280;61560;33.718;73.040;2022-10-17T13:22:27;94757.25;;;24.94;42.39
73332;BME280;61560;33.718;73.040;2022-10-17T13:25:11;94753.94;;;24.90;42.44
73332;BME280;61560;33.718;73.040;2022-10-17T13:27:39;94755.72;;;24.88;42.77
73332;BME280;61560;33.718;73.040;2022-10-17T13:30:26;94758.25;;;24.86;43.32
73332;BME280;61560;33.718;73.040;2022-10-17T13:32:53;94765.41;;;24.81;42.31
73332;BME280;61560;33.718;73.040;2022-10-17T13:35:35;94761.84;;;24.75;42.83
73332;BME280;61560;33.718;73.040;2022-10-17T13:38:04;94762.56;;;24.76;42.44
73332;BME280;61560;33.718;73.040;2022-10-17T13:40:42;94761.56;;;24.73;43.00
73332;BME280;61560;33.718;73.040;2022-10-17T13:43:21;94765.34;;;24.70;42.64
73332;BME280;61560;33.718;73.040;2022-10-17T13:45:58;94765.84;;;24.69;42.18
73332;BME280;61560;33.718;73.040;2022-10-17T13:48:29;94768.13;;;24.65;42.42
73332;BME280;61560;33.718;73.040;2022-10-17T13:50:59;94765.56;;;24.56;42.09
73332;BME280;61560;33.718;73.040;2022-10-17T13:53:33;94790.25;;;24.52;41.09
73332;BME280;61560;33.718;73.040;2022-10-17T13:56:02;94798.38;;;24.44;41.84
73332;BME280;61560;33.718;73.040;2022-10-17T14:01:11;94799.34;;;24.30;41.68
73332;BME280;61560;33.718;73.040;2022-10-17T14:03:43;94801.63;;;24.31;42.17
73332;BME280;61560;33.718;73.040;2022-10-17T14:08:53;94808.47;;;24.30;43.48
73332;BME280;61560;33.718;73.040;2022-10-17T14:11:41;94815.88;;;24.28;44.35
73332;BME280;61560;33.718;73.040;2022-10-17T14:14:22;94810.75;;;24.26;43.84
73332;BME280;61560;33.718;73.040;2022-10-17T14:16:51;94821.69;;;24.24;44.12
73332;BME280;61560;33.718;73.040;2022-10-17T14:19:30;94815.28;;;24.18;43.59
73332;BME280;61560;33.718;73.040;2022-10-17T14:22:26;94815.81;;;24.17;43.55
73332;BME280;61560;33.718;73.040;2022-10-17T14:25:31;94818.59;;;24.17;43.74
73332;BME280;61560;33.718;73.040;2022-10-17T14:33:10;94812.66;;;24.04;43.46
73332;BME280;61560;33.718;73.040;2022-10-17T14:35:51;94817.69;;;23.94;43.93
73332;BME280;61560;33.718;73.040;2022-10-17T14:38:19;94820.72;;;23.91;43.79
73332;BME280;61560;33.718;73.040;2022-10-17T14:40:50;94828.06;;;23.88;43.83
73332;BME280;61560;33.718;73.040;2022-10-17T14:43:24;94817.13;;;23.85;43.48
73332;BME280;61560;33.718;73.040;2022-10-17T14:45:51;94826.22;;;23.80;43.43
73332;BME280;61560;33.718;73.040;2022-10-17T14:48:23;94832.84;;;23.77;43.62
73332;BME280;61560;33.718;73.040;2022-10-17T14:51:16;94828.50;;;23.76;43.41
73332;BME280;61560;33.718;73.040;2022-10-17T14:56:39;94833.03;;;23.73;43.23
73332;BME280;61560;33.718;73.040;2022-10-17T14:59:07;94836.59;;;23.74;43.69
73332;BME280;61560;33.718;73.040;2022-10-17T15:01:36;94833.09;;;23.79;43.57
73332;BME280;61560;33.718;73.040;2022-10-17T15:04:02;94838.19;;;23.80;43.32
73332;BME280;61560;33.718;73.040;2022-10-17T15:06:32;94839.44;;;23.79;43.39
73332;BME280;61560;33.718;73.040;2022-10-17T15:09:00;94841.75;;;23.81;43.86
73332;BME280;61560;33.718;73.040;2022-10-17T15:11:27;94845.53;;;23.78;44.51
73332;BME280;61560;33.718;73.040;2022-10-17T15:13:54;94847.09;;;23.79;44.44
73332;BME280;61560;33.718;73.040;2022-10-17T15:16:26;94856.00;;;23.83;44.77
73332;BME280;61560;33.718;73.040;2022-10-17T15:18:53;94847.56;;;23.77;44.70
73332;BME280;61560;33.718;73.040;2022-10-17T15:21:21;94864.34;;;23.77;44.72
73332;BME280;61560;33.718;73.040;2022-10-17T15:23:49;94856.47;;;23.76;45.00
73332;BME280;61560;33.718;73.040;2022-10-17T15:26:22;94855.69;;;23.75;45.15
73332;BME280;61560;33.718;73.040;2022-10-17T15:28:49;94852.63;;;23.73;45.52
73332;BME280;61560;33.718;73.040;2022-10-17T15:31:18;94853.91;;;23.72;46.26
73332;BME280;61560;33.718;73.040;2022-10-17T15:33:46;94851.88;;;23.73;46.07
73332;BME280;61560;33.718;73.040;2022-10-17T15:36:25;94850.88;;;23.76;46.48
73332;BME280;61560;33.718;73.040;2022-10-17T15:38:56;94847.56;;;23.77;47.13
73332;BME280;61560;33.718;73.040;2022-10-17T15:41:25;94846.81;;;23.77;47.56
73332;BME280;61560;33.718;73.040;2022-10-17T15:43:52;94849.63;;;23.77;47.85
73332;BME280;61560;33.718;73.040;2022-10-17T15:46:23;94855.38;;;23.68;48.16
73332;BME280;61560;33.718;73.040;2022-10-17T15:48:52;94845.19;;;23.65;48.44
73332;BME280;61560;33.718;73.040;2022-10-17T15:51:19;94848.97;;;23.62;48.46
73332;BME280;61560;33.718;73.040;2022-10-17T15:53:46;94854.06;;;23.63;48.65
73332;BME280;61560;33.718;73.040;2022-10-17T15:56:29;94846.97;;;23.62;49.26
73332;BME280;61560;33.718;73.040;2022-10-17T15:58:57;94844.91;;;23.63;49.82
73332;BME280;61560;33.718;73.040;2022-10-17T16:01:26;94844.16;;;23.62;49.47
73332;BME280;61560;33.718;73.040;2022-10-17T16:03:54;94852.28;;;23.60;49.76